SBOSBO BAH / OBBI
Speedbird OnlineSpeedbird Online BAH / OBBI

Bahrain International Airport
22:45 26.1°C

Location Bahrain, Bahrain
Latitude: 26.27079963684082
Longitude: 50.63359832763672
Local Time 22:45 on 20 Apr 2024
UTC +3 hours (Asia/Bahrain)
Currency £1 equals BHD 0.47
METAR OBBI 201930Z 13009KT CAVOK 26/19 Q1008 NOSIG
TAF TAF OBBI 201700Z 2018/2200 13010KT 9000 NSC
Weather As Of 20 Apr 2024 22:45
Description Clear sky
Wind 17 km/h from South-East (130°)
Cloud Cover 0%
Precipitation Rain: none, Snow: none
Sunrise 05:09
Sunset 18:03
NOTAM 38 active NOTAM
Rotations During the last 90 days there were
71 flights from LHR
70 flights to LHR
Lounges The Pearl Lounge , New Terminal
Web Airport Website | Wikipedia
Codes IATA: BAH
ICAO: OBBI
Altitude 2 Meter / 6 Feet
Distance 5,055 KM / 3,141 Miles
from London.
Runways
RunwayLength (m)Surface
12L3956Asphalt
12R2530Asphalt
30L2530Asphalt
30R3956Asphalt
Radio
TypeDescriptionFrequency
APPAPP127.85
ATISATIS127.2
GNDGND121.675
OPSATOC32.175
TWRTWR118.5
Live ATC



Support Speedbird Online

© 2017-2024 Speedbird Online